sensor_id;sensor_type;location;lat;lon;timestamp;pressure;altitude;pressure_sealevel;temperature;humidity
23733;BME280;12047;53.450;-2.286;2022-11-02T02:00:17;100582.91;;;13.48;100.00
23733;BME280;12047;53.450;-2.286;2022-11-02T02:12:00;100589.31;;;13.38;100.00
23733;BME280;12047;53.450;-2.286;2022-11-02T03:47:02;100721.50;;;13.29;100.00
23733;BME280;12047;53.450;-2.286;2022-11-02T03:58:31;100736.78;;;12.91;100.00
23733;BME280;12047;53.450;-2.286;2022-11-02T04:03:54;100720.84;;;13.27;100.00
23733;BME280;12047;53.450;-2.286;2022-11-02T04:08:56;100742.81;;;13.11;100.00
23733;BME280;12047;53.450;-2.286;2022-11-02T04:14:03;100744.16;;;12.98;100.00
23733;BME280;12047;53.450;-2.286;2022-11-02T04:19:34;100752.16;;;12.98;100.00
23733;BME280;12047;53.450;-2.286;2022-11-02T04:24:45;100750.03;;;12.83;100.00
23733;BME280;12047;53.450;-2.286;2022-11-02T04:36:27;100775.75;;;12.65;100.00
23733;BME280;12047;53.450;-2.286;2022-11-02T04:54:19;100783.56;;;12.67;100.00
23733;BME280;12047;53.450;-2.286;2022-11-02T05:17:08;100806.50;;;12.13;100.00
23733;BME280;12047;53.450;-2.286;2022-11-02T05:28:22;100815.72;;;12.46;100.00
23733;BME280;12047;53.450;-2.286;2022-11-02T05:33:31;100803.81;;;12.50;100.00
23733;BME280;12047;53.450;-2.286;2022-11-02T05:39:10;100808.00;;;12.52;100.00
23733;BME280;12047;53.450;-2.286;2022-11-02T05:44:38;100806.88;;;12.27;100.00
23733;BME280;12047;53.450;-2.286;2022-11-02T05:50:01;100804.66;;;12.23;100.00
23733;BME280;12047;53.450;-2.286;2022-11-02T05:55:23;100802.81;;;12.23;100.00
23733;BME280;12047;53.450;-2.286;2022-11-02T06:00:28;100795.44;;;12.17;100.00
23733;BME280;12047;53.450;-2.286;2022-11-02T06:05:35;100797.63;;;12.59;100.00
23733;BME280;12047;53.450;-2.286;2022-11-02T06:29:47;100781.06;;;12.38;100.00
23733;BME280;12047;53.450;-2.286;2022-11-02T06:53:24;100761.47;;;12.66;100.00
23733;BME280;12047;53.450;-2.286;2022-11-02T07:22:57;100760.25;;;13.14;100.00
23733;BME280;12047;53.450;-2.286;2022-11-02T07:28:02;100753.50;;;13.02;100.00
23733;BME280;12047;53.450;-2.286;2022-11-02T07:33:03;100763.22;;;12.93;100.00
23733;BME280;12047;53.450;-2.286;2022-11-02T07:38:05;100763.47;;;13.00;100.00
23733;BME280;12047;53.450;-2.286;2022-11-02T07:55:10;100767.59;;;15.56;100.00
23733;BME280;12047;53.450;-2.286;2022-11-02T08:00:37;100779.00;;;14.25;100.00
23733;BME280;12047;53.450;-2.286;2022-11-02T08:06:15;100781.09;;;13.80;100.00
23733;BME280;12047;53.450;-2.286;2022-11-02T08:17:12;100774.94;;;13.53;100.00
23733;BME280;12047;53.450;-2.286;2022-11-02T08:22:12;100773.88;;;13.72;100.00
23733;BME280;12047;53.450;-2.286;2022-11-02T08:27:13;100775.53;;;13.99;100.00
23733;BME280;12047;53.450;-2.286;2022-11-02T08:32:14;100781.72;;;13.74;100.00
23733;BME280;12047;53.450;-2.286;2022-11-02T08:37:14;100780.03;;;13.99;100.00
23733;BME280;12047;53.450;-2.286;2022-11-02T08:42:21;100777.84;;;13.94;100.00
23733;BME280;12047;53.450;-2.286;2022-11-02T08:47:24;100766.47;;;14.18;100.00
23733;BME280;12047;53.450;-2.286;2022-11-02T08:52:41;100754.03;;;13.92;100.00
23733;BME280;12047;53.450;-2.286;2022-11-02T08:57:52;100759.19;;;14.28;100.00
23733;BME280;12047;53.450;-2.286;2022-11-02T09:03:04;100747.59;;;14.11;100.00
23733;BME280;12047;53.450;-2.286;2022-11-02T09:08:16;100735.03;;;14.29;100.00
23733;BME280;12047;53.450;-2.286;2022-11-02T09:13:22;100742.63;;;14.16;100.00
23733;BME280;12047;53.450;-2.286;2022-11-02T09:18:29;100729.47;;;14.49;100.00
23733;BME280;12047;53.450;-2.286;2022-11-02T09:23:30;100720.97;;;14.53;100.00
23733;BME280;12047;53.450;-2.286;2022-11-02T09:28:30;100696.81;;;14.55;100.00
23733;BME280;12047;53.450;-2.286;2022-11-02T09:33:31;100695.44;;;14.43;100.00
23733;BME280;12047;53.450;-2.286;2022-11-02T09:38:34;100659.66;;;14.70;100.00
23733;BME280;12047;53.450;-2.286;2022-11-02T09:48:49;100637.59;;;15.32;100.00
23733;BME280;12047;53.450;-2.286;2022-11-02T09:59:23;100610.47;;;14.96;100.00
23733;BME280;12047;53.450;-2.286;2022-11-02T10:04:46;100588.94;;;15.06;100.00
23733;BME280;12047;53.450;-2.286;2022-11-02T10:15:11;100560.63;;;14.89;100.00
23733;BME280;12047;53.450;-2.286;2022-11-02T10:25:54;100541.94;;;15.44;100.00
23733;BME280;12047;53.450;-2.286;2022-11-02T10:30:55;100528.25;;;15.08;100.00
23733;BME280;12047;53.450;-2.286;2022-11-02T10:46:51;100513.56;;;15.04;100.00
23733;BME280;12047;53.450;-2.286;2022-11-02T10:51:56;100505.91;;;15.40;100.00
23733;BME280;12047;53.450;-2.286;2022-11-02T10:56:59;100494.41;;;15.40;100.00
23733;BME280;12047;53.450;-2.286;2022-11-02T11:02:17;100471.53;;;15.76;100.00
23733;BME280;12047;53.450;-2.286;2022-11-02T11:07:25;100457.13;;;15.54;100.00
23733;BME280;12047;53.450;-2.286;2022-11-02T11:12:37;100448.50;;;15.98;100.00
23733;BME280;12047;53.450;-2.286;2022-11-02T11:17:40;100437.16;;;15.96;100.00
23733;BME280;12047;53.450;-2.286;2022-11-02T11:22:41;100422.25;;;16.16;100.00
23733;BME280;12047;53.450;-2.286;2022-11-02T11:27:47;100427.13;;;15.98;100.00
23733;BME280;12047;53.450;-2.286;2022-11-02T11:32:48;100399.59;;;16.12;100.00
23733;BME280;12047;53.450;-2.286;2022-11-02T11:37:49;100376.53;;;16.11;100.00
23733;BME280;12047;53.450;-2.286;2022-11-02T11:42:53;100367.88;;;16.09;100.00
23733;BME280;12047;53.450;-2.286;2022-11-02T11:47:58;100356.31;;;16.31;100.00
23733;BME280;12047;53.450;-2.286;2022-11-02T11:53:13;100322.47;;;16.24;100.00
23733;BME280;12047;53.450;-2.286;2022-11-02T11:58:30;100320.16;;;16.06;100.00
23733;BME280;12047;53.450;-2.286;2022-11-02T12:03:55;100309.91;;;16.39;100.00
23733;BME280;12047;53.450;-2.286;2022-11-02T12:14:38;100270.69;;;16.76;100.00
23733;BME280;12047;53.450;-2.286;2022-11-02T12:30:46;100233.69;;;16.79;100.00
23733;BME280;12047;53.450;-2.286;2022-11-02T12:46:54;100169.44;;;17.22;100.00
23733;BME280;12047;53.450;-2.286;2022-11-02T12:57:37;100137.81;;;17.32;100.00
23733;BME280;12047;53.450;-2.286;2022-11-02T13:13:15;100072.75;;;17.10;100.00
23733;BME280;12047;53.450;-2.286;2022-11-02T13:18:22;100067.06;;;17.20;100.00
23733;BME280;12047;53.450;-2.286;2022-11-02T13:28:47;100046.00;;;17.92;100.00
23733;BME280;12047;53.450;-2.286;2022-11-02T13:33:52;100039.84;;;17.57;100.00
23733;BME280;12047;53.450;-2.286;2022-11-02T13:39:05;100035.06;;;17.87;100.00
23733;BME280;12047;53.450;-2.286;2022-11-02T13:49:53;99984.38;;;17.99;100.00
23733;BME280;12047;53.450;-2.286;2022-11-02T13:54:59;99976.28;;;17.73;100.00
23733;BME280;12047;53.450;-2.286;2022-11-02T14:00:01;99969.13;;;17.99;100.00
23733;BME280;12047;53.450;-2.286;2022-11-02T14:05:03;99972.41;;;18.08;100.00
23733;BME280;12047;53.450;-2.286;2022-11-02T14:10:12;99943.34;;;17.98;100.00
23733;BME280;12047;53.450;-2.286;2022-11-02T14:20:42;99913.03;;;17.78;100.00
23733;BME280;12047;53.450;-2.286;2022-11-02T14:25:48;99907.47;;;17.80;100.00
23733;BME280;12047;53.450;-2.286;2022-11-02T14:41:43;99867.03;;;18.14;100.00
23733;BME280;12047;53.450;-2.286;2022-11-02T14:46:54;99843.16;;;17.93;100.00
23733;BME280;12047;53.450;-2.286;2022-11-02T14:57:58;99836.97;;;17.92;100.00
23733;BME280;12047;53.450;-2.286;2022-11-02T15:03:00;99821.72;;;17.80;100.00
23733;BME280;12047;53.450;-2.286;2022-11-02T15:08:23;99822.28;;;17.62;100.00
23733;BME280;12047;53.450;-2.286;2022-11-02T15:13:35;99803.75;;;18.07;100.00
23733;BME280;12047;53.450;-2.286;2022-11-02T15:18:41;99775.94;;;17.88;100.00
23733;BME280;12047;53.450;-2.286;2022-11-02T15:51:52;99730.63;;;17.66;100.00
23733;BME280;12047;53.450;-2.286;2022-11-02T15:57:00;99737.38;;;17.10;100.00
23733;BME280;12047;53.450;-2.286;2022-11-02T16:02:23;99682.84;;;17.24;100.00
23733;BME280;12047;53.450;-2.286;2022-11-02T16:07:35;99705.28;;;17.23;100.00
23733;BME280;12047;53.450;-2.286;2022-11-02T16:18:47;99675.00;;;16.96;100.00
23733;BME280;12047;53.450;-2.286;2022-11-02T16:24:20;99660.56;;;16.90;100.00
23733;BME280;12047;53.450;-2.286;2022-11-02T16:46:46;99696.00;;;17.78;100.00
23733;BME280;12047;53.450;-2.286;2022-11-02T16:51:53;99681.59;;;17.26;100.00
23733;BME280;12047;53.450;-2.286;2022-11-02T16:57:19;99611.38;;;17.18;100.00
23733;BME280;12047;53.450;-2.286;2022-11-02T17:02:38;99600.06;;;16.76;100.00
23733;BME280;12047;53.450;-2.286;2022-11-02T17:08:06;99629.28;;;16.78;100.00
23733;BME280;12047;53.450;-2.286;2022-11-02T17:13:18;99642.47;;;16.79;100.00
23733;BME280;12047;53.450;-2.286;2022-11-02T17:30:03;99612.41;;;17.17;100.00
23733;BME280;12047;53.450;-2.286;2022-11-02T17:40:41;99632.16;;;17.16;100.00
23733;BME280;12047;53.450;-2.286;2022-11-02T17:52:12;99663.25;;;16.97;100.00
23733;BME280;12047;53.450;-2.286;2022-11-02T17:57:31;99624.28;;;16.55;100.00
23733;BME280;12047;53.450;-2.286;2022-11-02T18:09:13;99632.84;;;16.24;100.00
23733;BME280;12047;53.450;-2.286;2022-11-02T18:44:37;99641.47;;;17.07;100.00
23733;BME280;12047;53.450;-2.286;2022-11-02T18:49:41;99633.81;;;16.97;100.00
23733;BME280;12047;53.450;-2.286;2022-11-02T18:54:42;99642.88;;;17.22;100.00
23733;BME280;12047;53.450;-2.286;2022-11-02T18:59:49;99644.13;;;17.20;100.00
23733;BME280;12047;53.450;-2.286;2022-11-02T19:04:50;99635.25;;;17.13;100.00
23733;BME280;12047;53.450;-2.286;2022-11-02T19:09:50;99619.22;;;17.06;100.00
23733;BME280;12047;53.450;-2.286;2022-11-02T19:14:51;99615.28;;;16.95;100.00
23733;BME280;12047;53.450;-2.286;2022-11-02T19:19:54;99625.59;;;16.98;100.00
23733;BME280;12047;53.450;-2.286;2022-11-02T19:25:04;99619.22;;;16.93;100.00
23733;BME280;12047;53.450;-2.286;2022-11-02T19:30:10;99618.38;;;16.99;100.00
23733;BME280;12047;53.450;-2.286;2022-11-02T19:35:14;99625.16;;;16.88;100.00
23733;BME280;12047;53.450;-2.286;2022-11-02T19:40:15;99628.66;;;17.09;100.00
23733;BME280;12047;53.450;-2.286;2022-11-02T19:45:15;99623.13;;;17.23;100.00
23733;BME280;12047;53.450;-2.286;2022-11-02T19:50:40;99632.56;;;17.13;100.00
23733;BME280;12047;53.450;-2.286;2022-11-02T20:01:55;99614.38;;;16.42;100.00
23733;BME280;12047;53.450;-2.286;2022-11-02T20:07:17;99612.69;;;16.34;100.00
23733;BME280;12047;53.450;-2.286;2022-11-02T20:12:20;99620.81;;;16.00;100.00
23733;BME280;12047;53.450;-2.286;2022-11-02T20:17:22;99630.00;;;16.39;100.00
23733;BME280;12047;53.450;-2.286;2022-11-02T20:22:28;99644.53;;;16.16;100.00
23733;BME280;12047;53.450;-2.286;2022-11-02T20:27:33;99618.19;;;15.65;100.00
23733;BME280;12047;53.450;-2.286;2022-11-02T20:32:36;99638.81;;;15.85;100.00
23733;BME280;12047;53.450;-2.286;2022-11-02T20:38:00;99651.09;;;16.14;100.00
23733;BME280;12047;53.450;-2.286;2022-11-02T20:43:06;99663.88;;;16.25;100.00
23733;BME280;12047;53.450;-2.286;2022-11-02T20:48:06;99658.06;;;16.15;100.00
23733;BME280;12047;53.450;-2.286;2022-11-02T20:53:10;99659.56;;;15.76;100.00
23733;BME280;12047;53.450;-2.286;2022-11-02T20:58:11;99669.53;;;16.02;100.00
23733;BME280;12047;53.450;-2.286;2022-11-02T21:03:14;99677.81;;;16.14;100.00
23733;BME280;12047;53.450;-2.286;2022-11-02T21:18:54;99688.16;;;16.30;100.00
23733;BME280;12047;53.450;-2.286;2022-11-02T21:23:59;99678.06;;;16.25;100.00
23733;BME280;12047;53.450;-2.286;2022-11-02T21:29:00;99689.28;;;16.55;100.00
23733;BME280;12047;53.450;-2.286;2022-11-02T21:40:14;99689.13;;;16.16;100.00
23733;BME280;12047;53.450;-2.286;2022-11-02T21:45:19;99705.84;;;15.90;100.00
23733;BME280;12047;53.450;-2.286;2022-11-02T21:55:56;99715.34;;;15.99;100.00
23733;BME280;12047;53.450;-2.286;2022-11-02T22:01:04;99732.75;;;15.88;100.00
23733;BME280;12047;53.450;-2.286;2022-11-02T22:12:26;99728.09;;;15.97;100.00
23733;BME280;12047;53.450;-2.286;2022-11-02T22:23:16;99734.00;;;15.92;100.00
23733;BME280;12047;53.450;-2.286;2022-11-02T22:44:18;99738.75;;;15.41;100.00
23733;BME280;12047;53.450;-2.286;2022-11-02T22:49:20;99740.69;;;15.26;100.00
23733;BME280;12047;53.450;-2.286;2022-11-02T22:54:22;99746.94;;;15.61;100.00
23733;BME280;12047;53.450;-2.286;2022-11-02T22:59:22;99759.13;;;15.70;100.00
23733;BME280;12047;53.450;-2.286;2022-11-02T23:04:23;99753.34;;;15.67;100.00
23733;BME280;12047;53.450;-2.286;2022-11-02T23:09:23;99753.56;;;15.44;100.00
23733;BME280;12047;53.450;-2.286;2022-11-02T23:14:24;99764.78;;;15.60;100.00
23733;BME280;12047;53.450;-2.286;2022-11-02T23:19:25;99766.13;;;15.50;100.00
23733;BME280;12047;53.450;-2.286;2022-11-02T23:24:29;99778.94;;;15.33;100.00
23733;BME280;12047;53.450;-2.286;2022-11-02T23:29:48;99785.03;;;15.27;100.00
23733;BME280;12047;53.450;-2.286;2022-11-02T23:35:08;99789.25;;;15.57;100.00
23733;BME280;12047;53.450;-2.286;2022-11-02T23:40:27;99803.50;;;15.50;100.00
23733;BME280;12047;53.450;-2.286;2022-11-02T23:45:28;99820.16;;;15.52;100.00
23733;BME280;12047;53.450;-2.286;2022-11-02T23:50:30;99804.59;;;15.34;100.00
23733;BME280;12047;53.450;-2.286;2022-11-02T23:55:50;99807.53;;;15.60;100.00
